Time;durP1;ratioP1;P1;durP2;ratioP2;P2;SDS_P1;SDS_P2;PMS_P1;PMS_P2;Temp;Humidity;BMP_temperature;BMP_pressure;BME280_temperature;BME280_humidity;BME280_pressure;Samples;Min_cycle;Max_cycle;Signal;HPM_P1;HPM_P2
2022/08/13 00:01:27;;;;;;;11.55;8.48;;;20.40;99.90;;;;;;5112100;28;20047;-68
2022/08/13 00:04:00;;;;;;;17.02;9.85;;;20.30;99.90;;;;;;5092077;28;20052;-67
2022/08/13 00:07:02;;;;;;;18.67;9.57;;;20.30;99.90;;;;;;5111904;28;20372;-68
2022/08/13 00:09:21;;;;;;;14.95;11.18;;;20.30;99.90;;;;;;5111151;28;20122;-69
2022/08/13 00:14:57;;;;;;;14.80;9.32;;;20.20;99.90;;;;;;5112050;28;20094;-69
2022/08/13 00:17:27;;;;;;;18.20;11.63;;;20.10;99.90;;;;;;5111619;28;20509;-70
2022/08/13 00:20:15;;;;;;;13.18;9.48;;;20.10;99.90;;;;;;5091457;28;20537;-69
2022/08/13 00:22:44;;;;;;;14.00;10.57;;;20.10;99.90;;;;;;5108172;28;20048;-69
2022/08/13 00:25:26;;;;;;;13.98;10.10;;;20.10;99.90;;;;;;5092683;28;20105;-69
2022/08/13 00:28:09;;;;;;;13.10;10.70;;;20.00;99.90;;;;;;5084917;28;20047;-69
2022/08/13 00:30:36;;;;;;;13.90;10.52;;;20.00;99.90;;;;;;5111654;28;20047;-69
2022/08/13 00:33:05;;;;;;;11.32;8.95;;;20.00;99.90;;;;;;5112465;28;20052;-69
2022/08/13 00:35:36;;;;;;;14.68;10.00;;;20.10;99.90;;;;;;5111780;28;20391;-69
2022/08/13 00:38:14;;;;;;;20.45;11.25;;;20.00;99.90;;;;;;5095539;28;20486;-69
2022/08/13 00:40:46;;;;;;;14.05;10.68;;;20.00;99.90;;;;;;5111073;28;20043;-71
2022/08/13 00:43:23;;;;;;;16.10;11.55;;;20.00;99.90;;;;;;5091124;28;20044;-70
2022/08/13 00:45:50;;;;;;;14.57;10.93;;;19.90;99.90;;;;;;5108078;28;20047;-69
2022/08/13 00:51:05;;;;;;;13.52;9.88;;;19.90;99.90;;;;;;5111534;28;20047;-69
2022/08/13 00:53:34;;;;;;;13.20;9.65;;;19.90;99.90;;;;;;5094838;28;20089;-69
2022/08/13 00:56:11;;;;;;;17.60;9.38;;;19.80;99.90;;;;;;5095654;28;20056;-69
2022/08/13 00:58:41;;;;;;;16.17;11.00;;;19.70;99.90;;;;;;5094906;28;20405;-71
2022/08/13 01:01:08;;;;;;;15.35;12.57;;;19.70;99.90;;;;;;5111300;28;20130;-70
2022/08/13 01:03:43;;;;;;;15.15;10.50;;;19.60;99.90;;;;;;5111468;28;20122;-69
2022/08/13 01:06:32;;;;;;;12.95;10.65;;;19.60;99.90;;;;;;5083858;28;20414;-69
2022/08/13 01:08:59;;;;;;;15.20;10.57;;;19.50;99.90;;;;;;5078189;28;20044;-75
2022/08/13 01:11:32;;;;;;;11.63;9.25;;;19.50;99.90;;;;;;5111407;28;20276;-69
2022/08/13 01:14:07;;;;;;;12.02;9.43;;;19.40;99.90;;;;;;5094976;28;20051;-69
2022/08/13 01:16:36;;;;;;;14.90;9.82;;;19.40;99.90;;;;;;5079981;28;20069;-70
2022/08/13 01:19:04;;;;;;;;;;;19.30;99.90;;;;;;5093153;28;20392;-69
2022/08/13 01:21:39;;;;;;;13.02;9.55;;;19.30;99.90;;;;;;5110615;28;19954;-69
2022/08/13 01:24:09;;;;;;;12.18;10.00;;;19.30;99.90;;;;;;5110730;28;20491;-69
2022/08/13 01:26:40;;;;;;;15.60;9.63;;;19.30;99.90;;;;;;5111267;28;20113;-69
2022/08/13 01:29:15;;;;;;;13.27;9.68;;;19.20;99.90;;;;;;5090868;28;20116;-69
2022/08/13 01:31:42;;;;;;;13.55;11.00;;;19.20;99.90;;;;;;5107345;28;20060;-69
2022/08/13 01:34:11;;;;;;;15.25;9.50;;;19.10;99.90;;;;;;5090909;28;20387;-69
2022/08/13 01:36:53;;;;;;;12.57;9.82;;;19.10;99.90;;;;;;5090881;28;20058;-69
2022/08/13 01:39:23;;;;;;;13.40;9.00;;;19.10;99.90;;;;;;5106382;28;20127;-70
2022/08/13 01:41:55;;;;;;;13.07;9.63;;;19.00;99.90;;;;;;5090892;28;20395;-69
2022/08/13 01:44:24;;;;;;;13.77;10.63;;;18.90;99.90;;;;;;5090893;28;20044;-71
2022/08/13 01:52:40;;;;;;;13.43;9.80;;;18.80;99.90;;;;;;5095834;28;20055;-69
2022/08/13 01:55:07;;;;;;;13.88;10.10;;;18.80;99.90;;;;;;5110741;28;20055;-70
2022/08/13 01:57:40;;;;;;;16.70;9.55;;;18.80;99.90;;;;;;5115593;28;20075;-70
2022/08/13 02:00:21;;;;;;;13.63;9.15;;;18.70;99.90;;;;;;5099834;28;20052;-70
2022/08/13 02:02:53;;;;;;;12.32;9.40;;;18.70;99.90;;;;;;5114505;28;20100;-71
2022/08/13 02:05:22;;;;;;;10.63;8.75;;;18.70;99.90;;;;;;5114828;28;20401;-68
2022/08/13 02:08:11;;;;;;;11.35;8.30;;;18.70;99.90;;;;;;5113803;28;20050;-69
2022/08/13 02:10:39;;;;;;;12.00;9.38;;;18.60;99.90;;;;;;5113909;28;20491;-69
2022/08/13 02:13:14;;;;;;;12.50;9.23;;;18.60;99.90;;;;;;5114337;28;20055;-69
2022/08/13 02:15:44;;;;;;;11.38;9.02;;;18.60;99.90;;;;;;5098902;28;20054;-69
2022/08/13 02:18:17;;;;;;;14.25;11.43;;;18.60;99.90;;;;;;5113922;28;20482;-69
2022/08/13 02:20:53;;;;;;;12.52;10.57;;;18.50;99.90;;;;;;5114366;28;20051;-69
2022/08/13 02:23:28;;;;;;;11.35;9.63;;;18.50;99.90;;;;;;5114140;28;20097;-69
2022/08/13 02:26:16;;;;;;;13.63;9.90;;;18.50;99.90;;;;;;5114273;28;20116;-69
2022/08/13 02:28:43;;;;;;;16.45;10.63;;;18.50;99.90;;;;;;5113921;28;20051;-69
2022/08/13 02:31:15;;;;;;;14.20;9.23;;;18.40;99.90;;;;;;5114164;28;20386;-69
2022/08/13 02:34:03;;;;;;;9.82;8.35;;;18.40;99.90;;;;;;5114023;28;20079;-69
2022/08/13 02:36:36;;;;;;;11.63;8.05;;;18.30;99.90;;;;;;5113711;28;20048;-69
2022/08/13 02:39:05;;;;;;;10.57;8.93;;;18.30;99.90;;;;;;5115217;28;20056;-71
2022/08/13 02:41:38;;;;;;;13.00;7.97;;;18.30;99.90;;;;;;5093264;28;20044;-70
2022/08/13 02:44:17;;;;;;;9.70;8.50;;;18.20;99.90;;;;;;5093544;28;20123;-69
2022/08/13 02:46:50;;;;;;;13.18;9.10;;;18.20;99.90;;;;;;5093284;28;20357;-69
2022/08/13 02:49:21;;;;;;;11.13;8.35;;;18.20;99.90;;;;;;5111891;28;20050;-70
2022/08/13 02:51:55;;;;;;;8.98;7.30;;;18.20;99.90;;;;;;5113831;28;20112;-69
2022/08/13 02:54:33;;;;;;;8.57;7.32;;;18.10;99.90;;;;;;5113005;28;20471;-69
2022/08/13 02:57:01;;;;;;;11.02;9.18;;;18.10;99.90;;;;;;5113981;28;20083;-69
2022/08/13 02:59:30;;;;;;;10.23;7.95;;;18.10;99.90;;;;;;5093045;28;20079;-69
2022/08/13 03:02:17;;;;;;;11.95;8.23;;;18.10;99.90;;;;;;5111822;28;20043;-69
2022/08/13 03:04:46;;;;;;;;;;;18.00;99.90;;;;;;5095957;28;20074;-70
2022/08/13 03:07:13;;;;;;;11.73;8.13;;;18.00;99.90;;;;;;5110993;28;20363;-65
2022/08/13 03:09:41;;;;;;;10.32;8.40;;;18.00;99.90;;;;;;5111686;28;20047;-66
2022/08/13 03:12:12;;;;;;;12.30;8.38;;;18.00;99.90;;;;;;5104041;28;20109;-66
2022/08/13 03:14:41;;;;;;;8.73;7.55;;;17.90;99.90;;;;;;5113778;28;20410;-65
2022/08/13 03:17:08;;;;;;;11.38;7.38;;;17.90;99.90;;;;;;5111290;28;20059;-70
2022/08/13 03:19:48;;;;;;;12.82;9.25;;;17.90;99.90;;;;;;5096432;28;20047;-73
2022/08/13 03:22:16;;;;;;;10.15;7.32;;;17.80;99.90;;;;;;5111923;28;20079;-70
2022/08/13 03:24:43;;;;;;;9.57;8.48;;;17.80;99.90;;;;;;5112370;28;20040;-69
2022/08/13 03:27:11;;;;;;;10.10;7.45;;;17.80;99.90;;;;;;5111326;28;20403;-75
2022/08/13 03:29:43;;;;;;;9.30;8.18;;;17.70;99.90;;;;;;5111986;28;20050;-71
2022/08/13 03:32:34;;;;;;;9.85;8.13;;;17.70;99.90;;;;;;5091201;28;20044;-69
2022/08/13 03:35:04;;;;;;;9.57;8.52;;;17.70;99.90;;;;;;5081359;28;20047;-70
2022/08/13 03:37:37;;;;;;;9.20;6.70;;;17.60;99.90;;;;;;5097214;28;20071;-69
2022/08/13 03:40:05;;;;;;;9.68;7.13;;;17.60;99.90;;;;;;5109363;28;20135;-74
2022/08/13 03:42:33;;;;;;;12.80;8.17;;;17.70;99.90;;;;;;5091075;28;20091;-77
2022/08/13 03:45:18;;;;;;;10.60;8.15;;;17.70;99.90;;;;;;5091421;28;20059;-70
2022/08/13 03:47:48;;;;;;;13.93;8.10;;;17.80;99.90;;;;;;5101395;28;20044;-70
2022/08/13 03:50:15;;;;;;;9.52;8.18;;;17.80;99.90;;;;;;5112503;28;20107;-72
2022/08/13 03:52:43;;;;;;;14.75;9.23;;;17.80;99.90;;;;;;5110833;28;20039;-69
2022/08/13 03:55:13;;;;;;;19.95;10.00;;;17.70;99.90;;;;;;5110763;28;20406;-69
2022/08/13 03:57:41;;;;;;;17.48;12.75;;;17.70;99.90;;;;;;5069430;28;20135;-68
2022/08/13 04:00:28;;;;;;;13.85;11.43;;;17.60;99.90;;;;;;5089187;28;20047;-68
2022/08/13 04:02:56;;;;;;;11.48;9.00;;;17.50;99.90;;;;;;5090936;28;20061;-68
2022/08/13 04:05:24;;;;;;;10.80;8.43;;;17.50;99.90;;;;;;5111594;28;20047;-68
2022/08/13 04:08:11;;;;;;;10.98;8.30;;;17.40;99.90;;;;;;5111885;28;20052;-69
2022/08/13 04:10:40;;;;;;;11.18;7.43;;;17.40;99.90;;;;;;5095275;28;20050;-68
2022/08/13 04:13:19;;;;;;;8.07;7.15;;;17.30;99.90;;;;;;5094241;28;20048;-70
2022/08/13 04:16:07;;;;;;;12.57;8.55;;;17.30;99.90;;;;;;5111562;28;20048;-74
2022/08/13 04:18:36;;;;;;;10.25;7.70;;;17.30;99.90;;;;;;5092275;28;20052;-73
2022/08/13 04:21:04;;;;;;;9.82;7.57;;;17.20;99.90;;;;;;5090353;28;20040;-73
2022/08/13 04:23:33;;;;;;;9.90;7.25;;;17.20;99.90;;;;;;5074284;28;20040;-72
2022/08/13 04:26:03;;;;;;;9.65;7.75;;;17.20;99.90;;;;;;5092421;28;20052;-73
2022/08/13 04:28:32;;;;;;;11.13;8.55;;;17.20;99.90;;;;;;5102528;28;20050;-72
2022/08/13 04:31:00;;;;;;;12.63;8.68;;;17.10;99.90;;;;;;5111194;28;20058;-72
2022/08/13 04:33:31;;;;;;;14.20;8.77;;;17.10;99.90;;;;;;5113025;28;20051;-72
2022/08/13 04:36:18;;;;;;;13.63;7.85;;;17.10;99.90;;;;;;5097619;28;20491;-73
2022/08/13 04:38:46;;;;;;;8.82;7.82;;;17.10;99.90;;;;;;5109808;28;20055;-72
2022/08/13 04:41:13;;;;;;;8.23;7.15;;;17.00;99.90;;;;;;5112706;28;20411;-73
2022/08/13 04:43:41;;;;;;;9.23;7.50;;;17.10;99.90;;;;;;5094928;28;20100;-73
2022/08/13 04:46:08;;;;;;;13.05;7.15;;;17.00;99.90;;;;;;5111830;28;20059;-73
2022/08/13 04:48:35;;;;;;;9.80;7.32;;;17.10;99.90;;;;;;5110085;28;20062;-73
2022/08/13 04:51:05;;;;;;;9.23;7.00;;;17.10;99.90;;;;;;5111833;28;20050;-73
2022/08/13 04:53:36;;;;;;;11.27;7.07;;;17.10;99.90;;;;;;5111365;28;20048;-73
2022/08/13 04:56:16;;;;;;;11.60;7.22;;;17.10;99.90;;;;;;5110976;28;20048;-73
2022/08/13 04:58:45;;;;;;;11.07;7.40;;;17.10;99.90;;;;;;5090644;28;20054;-72
2022/08/13 05:01:12;;;;;;;10.63;6.93;;;17.10;99.90;;;;;;5111254;28;20399;-72
2022/08/13 05:03:59;;;;;;;11.98;7.45;;;17.10;99.90;;;;;;5112340;28;20142;-72
2022/08/13 05:06:46;;;;;;;12.75;7.60;;;17.10;99.90;;;;;;5109229;28;20043;-72
2022/08/13 05:09:18;;;;;;;8.73;6.82;;;17.10;99.90;;;;;;5108978;28;20051;-72
2022/08/13 05:11:45;;;;;;;8.70;7.75;;;17.10;99.90;;;;;;5094454;28;20402;-73
2022/08/13 05:14:32;;;;;;;8.00;7.28;;;17.10;99.90;;;;;;5097331;28;20048;-72
2022/08/13 05:17:04;;;;;;;8.43;7.03;;;17.10;99.90;;;;;;5094950;28;20058;-72
2022/08/13 05:19:32;;;;;;;7.68;6.85;;;17.20;99.90;;;;;;5091091;28;20052;-72
2022/08/13 05:22:06;;;;;;;9.68;7.18;;;17.20;99.90;;;;;;5111145;28;20058;-73
2022/08/13 05:24:51;;;;;;;7.75;6.65;;;17.40;99.90;;;;;;5069962;28;20101;-72
2022/08/13 05:27:42;;;;;;;11.55;6.88;;;17.70;99.90;;;;;;5081780;28;20105;-73
2022/08/13 05:30:12;;;;;;;8.73;6.82;;;17.80;99.90;;;;;;5112335;28;20059;-72
2022/08/13 05:32:57;;;;;;;7.78;6.72;;;18.00;99.90;;;;;;5093996;28;20067;-73
2022/08/13 05:35:26;;;;;;;8.27;6.20;;;18.40;99.90;;;;;;5095126;28;20069;-73
2022/08/13 05:38:14;;;;;;;9.40;7.22;;;18.70;99.90;;;;;;5066556;28;20502;-73
2022/08/13 05:40:51;;;;;;;11.55;7.07;;;19.10;99.90;;;;;;5109281;28;20106;-73
2022/08/13 05:43:20;;;;;;;7.97;6.70;;;19.40;99.90;;;;;;5098694;28;20043;-73
2022/08/13 05:45:48;;;;;;;7.43;6.65;;;19.40;99.90;;;;;;5115323;28;20044;-73
2022/08/13 05:48:22;;;;;;;11.75;7.50;;;19.40;99.90;;;;;;5115025;28;20051;-73
2022/08/13 05:50:59;;;;;;;9.88;7.68;;;19.60;99.90;;;;;;5114133;28;20122;-73
2022/08/13 05:53:26;;;;;;;9.15;7.15;;;19.80;99.90;;;;;;5114099;28;20123;-73
2022/08/13 05:56:07;;;;;;;11.63;7.95;;;19.80;99.90;;;;;;5096269;28;20552;-72
2022/08/13 05:58:44;;;;;;;9.60;7.47;;;19.70;99.90;;;;;;5114227;28;20051;-73
2022/08/13 06:04:08;;;;;;;12.05;8.50;;;19.70;99.90;;;;;;5094342;28;20048;-73
2022/08/13 06:06:56;;;;;;;11.95;7.40;;;19.70;99.90;;;;;;5114812;28;20510;-72
2022/08/13 06:09:25;;;;;;;9.90;7.63;;;19.70;99.90;;;;;;5114421;28;20101;-73
2022/08/13 06:11:59;;;;;;;9.13;7.47;;;19.70;99.90;;;;;;5112185;28;20287;-71
2022/08/13 06:14:46;;;;;;;11.23;7.82;;;19.70;99.90;;;;;;5115413;28;20491;-74
2022/08/13 06:17:19;;;;;;;11.05;8.25;;;19.80;99.90;;;;;;5082118;28;20048;-74
2022/08/13 06:19:49;;;;;;;10.30;7.55;;;19.80;99.90;;;;;;5098120;28;20127;-73
2022/08/13 06:22:20;;;;;;;10.23;7.60;;;19.80;99.90;;;;;;5110635;28;20499;-73
2022/08/13 06:24:50;;;;;;;10.07;7.15;;;19.90;99.90;;;;;;5098272;28;20574;-72
2022/08/13 06:27:24;;;;;;;10.70;7.32;;;19.90;99.90;;;;;;5111743;28;20058;-71
2022/08/13 06:30:11;;;;;;;10.25;7.05;;;20.00;99.90;;;;;;5086384;28;20065;-71
2022/08/13 06:32:57;;;;;;;16.20;6.93;;;20.00;99.90;;;;;;5077835;28;20048;-71
2022/08/13 06:35:45;;;;;;;9.60;7.10;;;20.10;99.90;;;;;;5094421;28;20051;-71
2022/08/13 06:38:25;;;;;;;10.05;6.43;;;20.10;99.90;;;;;;5065892;28;20051;-72
2022/08/13 06:40:54;;;;;;;14.10;7.30;;;20.20;99.90;;;;;;5097181;28;20547;-72
2022/08/13 06:43:21;;;;;;;11.50;6.30;;;20.30;99.90;;;;;;5094685;28;20134;-72
2022/08/13 06:45:48;;;;;;;14.60;7.25;;;20.40;99.90;;;;;;5076465;28;20056;-72
2022/08/13 06:48:20;;;;;;;12.15;7.38;;;20.50;99.90;;;;;;5077624;28;20052;-72
2022/08/13 06:51:01;;;;;;;14.00;6.75;;;20.50;99.90;;;;;;5096372;28;20055;-72
2022/08/13 06:53:29;;;;;;;12.70;7.10;;;20.60;99.90;;;;;;5113331;28;20051;-72
2022/08/13 06:56:22;;;;;;;11.02;7.40;;;20.60;99.90;;;;;;5099755;28;20055;-72
2022/08/13 06:59:02;;;;;;;12.68;6.40;;;20.70;99.90;;;;;;5098108;28;20466;-73
2022/08/13 07:01:42;;;;;;;18.15;8.30;;;20.80;99.90;;;;;;5099104;28;20055;-72
2022/08/13 07:04:29;;;;;;;15.32;8.85;;;20.90;99.90;;;;;;5079098;28;20056;-71
2022/08/13 07:06:57;;;;;;;15.18;6.70;;;21.00;99.90;;;;;;5093110;28;20122;-72
2022/08/13 07:09:24;;;;;;;19.52;8.35;;;21.00;99.90;;;;;;5076244;28;20044;-72
2022/08/13 07:11:57;;;;;;;11.98;7.97;;;21.00;99.90;;;;;;5105686;28;20050;-72
2022/08/13 07:14:26;;;;;;;14.98;6.63;;;21.10;99.90;;;;;;5109576;28;20052;-72
2022/08/13 07:16:55;;;;;;;20.40;9.43;;;21.10;99.90;;;;;;5112510;28;20052;-72
2022/08/13 07:19:24;;;;;;;11.25;7.05;;;21.30;99.90;;;;;;5096562;28;20043;-72
2022/08/13 07:22:15;;;;;;;14.13;7.43;;;21.40;99.90;;;;;;5099006;28;20054;-72
2022/08/13 07:25:03;;;;;;;12.27;6.60;;;21.50;99.90;;;;;;5093901;28;20043;-73
2022/08/13 07:27:30;;;;;;;9.80;6.37;;;21.60;99.90;;;;;;5095701;28;20086;-71
2022/08/13 07:30:00;;;;;;;11.18;6.22;;;21.70;99.90;;;;;;5111190;28;20083;-71
2022/08/13 07:32:27;;;;;;;12.10;6.32;;;21.80;99.90;;;;;;5110578;28;20047;-71
2022/08/13 07:34:58;;;;;;;12.75;6.78;;;21.80;99.90;;;;;;5095424;28;20051;-72
2022/08/13 07:37:27;;;;;;;12.65;6.38;;;21.90;99.90;;;;;;5111548;28;20052;-73
2022/08/13 07:39:55;;;;;;;10.40;5.80;;;21.90;99.90;;;;;;5095731;28;20097;-72
2022/08/13 07:42:27;;;;;;;17.40;7.15;;;22.00;99.90;;;;;;5096433;28;20046;-72
2022/08/13 07:45:00;;;;;;;10.95;6.38;;;22.00;99.90;;;;;;5094733;28;20047;-71
2022/08/13 07:47:50;;;;;;;13.00;6.60;;;22.10;99.90;;;;;;5082073;28;20043;-72
2022/08/13 07:50:37;;;;;;;11.25;6.18;;;22.20;99.90;;;;;;5113152;28;20039;-71
2022/08/13 07:53:07;;;;;;;12.43;6.90;;;22.30;99.90;;;;;;5111923;28;20485;-71
2022/08/13 07:55:42;;;;;;;8.73;6.07;;;22.40;99.90;;;;;;5111488;28;20077;-69
2022/08/13 07:58:30;;;;;;;28.73;18.25;;;22.40;99.90;;;;;;5078093;28;20449;-71
2022/08/13 08:00:59;;;;;;;11.98;8.10;;;22.40;99.90;;;;;;5096593;28;20040;-70
2022/08/13 08:03:38;;;;;;;11.10;6.72;;;22.50;99.90;;;;;;5088559;28;20077;-71
2022/08/13 08:06:22;;;;;;;14.52;7.60;;;22.60;99.90;;;;;;5098015;28;20203;-71
2022/08/13 08:08:57;;;;;;;17.33;6.75;;;22.70;99.90;;;;;;5112279;28;20047;-72
2022/08/13 08:14:18;;;;;;;12.55;6.30;;;23.00;99.90;;;;;;5098936;28;20047;-72
2022/08/13 08:17:00;;;;;;;11.73;5.75;;;23.20;99.90;;;;;;5095837;28;20035;-72
2022/08/13 08:19:47;;;;;;;9.90;5.80;;;23.30;99.90;;;;;;5085497;28;20039;-72
2022/08/13 08:22:34;;;;;;;12.75;5.85;;;23.30;99.90;;;;;;5109852;28;20394;-63
2022/08/13 08:25:02;;;;;;;12.57;5.65;;;23.30;99.90;;;;;;5094871;28;20048;-71
2022/08/13 08:27:47;;;;;;;14.18;6.00;;;23.30;99.90;;;;;;5111724;28;20043;-72
2022/08/13 08:30:34;;;;;;;10.65;6.60;;;23.40;99.90;;;;;;5112306;28;20044;-72
2022/08/13 08:33:01;;;;;;;13.57;5.68;;;23.40;99.90;;;;;;5111261;28;20047;-72
2022/08/13 08:35:38;;;;;;;8.75;5.45;;;23.50;99.90;;;;;;5094317;28;20048;-72
2022/08/13 08:44:16;;;;;;;17.67;7.00;;;23.60;99.90;;;;;;5083321;28;20047;-72
2022/08/13 08:46:43;;;;;;;12.65;7.78;;;23.70;99.90;;;;;;5090429;28;20085;-72
2022/08/13 08:49:15;;;;;;;10.93;6.68;;;23.80;99.90;;;;;;5078451;28;20048;-72
2022/08/13 08:52:01;;;;;;;12.65;5.75;;;24.00;99.90;;;;;;5095912;28;20047;-72
2022/08/13 08:54:29;;;;;;;14.10;5.90;;;24.10;99.90;;;;;;5078247;28;20052;-71
2022/08/13 08:56:58;;;;;;;12.15;6.47;;;24.30;99.90;;;;;;5109502;28;20066;-72
2022/08/13 08:59:32;;;;;;;14.95;5.70;;;24.30;99.90;;;;;;5094617;28;20143;-72
2022/08/13 09:01:59;;;;;;;16.80;6.22;;;24.40;99.90;;;;;;5110908;28;20071;-72
2022/08/13 09:04:32;;;;;;;;;;;24.40;99.90;;;;;;5111701;28;20082;-72
2022/08/13 09:07:18;;;;;;;9.75;5.30;;;24.40;99.90;;;;;;5107643;28;19919;-70
2022/08/13 09:09:51;;;;;;;11.80;5.45;;;24.40;99.90;;;;;;5095022;28;20426;-71
2022/08/13 09:12:23;;;;;;;13.15;5.70;;;24.50;99.90;;;;;;5093010;28;20393;-71
2022/08/13 09:14:53;;;;;;;10.20;5.53;;;24.50;99.90;;;;;;5099793;28;20065;-71
2022/08/13 09:17:20;;;;;;;10.73;4.75;;;24.60;99.90;;;;;;5111221;28;20048;-70
2022/08/13 09:19:47;;;;;;;11.35;5.25;;;24.70;99.90;;;;;;5111181;28;20047;-70
2022/08/13 09:22:21;;;;;;;12.23;5.55;;;24.80;99.90;;;;;;5109213;28;20048;-70
2022/08/13 09:24:58;;;;;;;10.90;5.20;;;24.80;99.90;;;;;;5088324;28;20048;-70
2022/08/13 09:27:30;;;;;;;8.20;5.65;;;25.00;99.90;;;;;;5078708;28;20051;-71
2022/08/13 09:30:17;;;;;;;17.65;5.20;;;25.00;99.90;;;;;;5111153;28;20040;-70
2022/08/13 09:32:56;;;;;;;14.43;6.20;;;25.10;99.90;;;;;;5111619;28;20055;-73
2022/08/13 09:35:33;;;;;;;16.13;10.93;;;25.20;99.90;;;;;;5108313;28;20066;-76
2022/08/13 09:38:06;;;;;;;8.50;5.68;;;25.20;99.90;;;;;;5104191;28;20047;-72
2022/08/13 09:40:44;;;;;;;11.95;5.85;;;25.30;99.90;;;;;;5095383;28;20451;-75
2022/08/13 09:43:38;;;;;;;13.60;5.63;;;25.40;99.90;;;;;;5095942;28;20047;-71
2022/08/13 09:46:15;;;;;;;7.97;4.60;;;25.50;99.90;;;;;;5076668;28;20097;-73
2022/08/13 09:48:46;;;;;;;12.98;4.30;;;25.50;99.90;;;;;;5089258;28;20146;-74
2022/08/13 09:51:14;;;;;;;16.02;4.88;;;25.60;99.90;;;;;;5093208;28;20398;-69
2022/08/13 09:54:08;;;;;;;10.05;4.70;;;25.70;99.90;;;;;;5095974;28;20047;-73
2022/08/13 09:56:38;;;;;;;12.60;9.93;;;25.70;99.90;;;;;;5077524;28;20075;-73
2022/08/13 09:59:10;;;;;;;9.07;4.85;;;25.80;99.90;;;;;;5080933;28;20077;-69
2022/08/13 10:01:56;;;;;;;10.10;5.78;;;25.80;99.90;;;;;;5100381;28;20039;-74
2022/08/13 10:04:26;;;;;;;8.55;6.50;;;25.90;99.90;;;;;;5096277;28;20376;-71
2022/08/13 10:06:58;;;;;;;11.25;4.30;;;26.00;99.90;;;;;;5110835;28;20083;-74
2022/08/13 10:09:30;;;;;;;18.20;11.63;;;26.10;99.90;;;;;;5076670;28;20056;-74
2022/08/13 10:12:05;;;;;;;10.40;5.60;;;26.10;99.90;;;;;;5107557;28;20120;-69
2022/08/13 10:14:47;;;;;;;8.10;4.40;;;26.20;99.90;;;;;;5095530;28;20047;-71
2022/08/13 10:17:25;;;;;;;9.93;5.93;;;26.30;99.90;;;;;;5107485;28;20158;-71
2022/08/13 10:20:36;;;;;;;25.80;4.65;;;26.40;99.90;;;;;;5106572;28;20047;-75
2022/08/13 10:23:05;;;;;;;12.48;4.55;;;26.60;97.20;;;;;;5101110;28;20491;-71
2022/08/13 10:25:32;;;;;;;8.63;4.03;;;26.60;97.30;;;;;;5111111;28;20213;-75
2022/08/13 10:28:21;;;;;;;14.70;10.05;;;26.80;97.50;;;;;;5109138;28;20055;-67
2022/08/13 10:31:07;;;;;;;10.07;6.10;;;26.80;94.80;;;;;;5111973;28;20047;-66
2022/08/13 10:33:55;;;;;;;8.68;4.10;;;26.80;94.50;;;;;;5110423;28;20453;-70
2022/08/13 10:36:25;;;;;;;9.82;3.90;;;26.90;95.40;;;;;;5093918;28;20051;-71
2022/08/13 10:39:00;;;;;;;8.65;5.55;;;27.00;96.20;;;;;;5111407;28;20056;-74
2022/08/13 10:41:31;;;;;;;48.40;43.97;;;27.10;94.80;;;;;;5109891;28;20127;-71
2022/08/13 10:44:01;;;;;;;5.87;4.77;;;27.20;94.20;;;;;;5088556;28;20086;-72
2022/08/13 10:46:31;;;;;;;7.55;3.38;;;27.30;94.10;;;;;;5097220;28;20052;-74
2022/08/13 10:49:00;;;;;;;9.15;4.20;;;27.30;94.20;;;;;;5091969;28;20060;-70
2022/08/13 10:51:28;;;;;;;9.20;3.53;;;27.30;93.80;;;;;;5110427;28;20066;-71
2022/08/13 10:53:58;;;;;;;10.88;4.53;;;27.40;94.70;;;;;;5110592;28;20047;-71
2022/08/13 10:56:28;;;;;;;10.45;4.45;;;27.50;95.20;;;;;;5090035;28;20048;-75
2022/08/13 10:58:56;;;;;;;9.73;3.85;;;27.50;93.40;;;;;;5089432;28;20487;-68
2022/08/13 11:01:24;;;;;;;10.32;3.78;;;27.60;94.30;;;;;;5094376;28;20059;-70
2022/08/13 11:03:57;;;;;;;7.70;3.60;;;27.60;93.80;;;;;;5109604;28;20565;-69
2022/08/13 11:06:31;;;;;;;9.75;3.20;;;27.60;93.20;;;;;;5094311;28;20290;-71
2022/08/13 11:09:01;;;;;;;6.22;3.38;;;27.70;92.20;;;;;;5095510;28;20055;-70
2022/08/13 11:11:48;;;;;;;6.18;3.13;;;27.80;90.40;;;;;;5112579;28;20047;-73
2022/08/13 11:14:21;;;;;;;7.68;3.28;;;27.90;91.30;;;;;;5109170;28;20056;-75
2022/08/13 11:17:04;;;;;;;10.93;3.58;;;28.00;91.80;;;;;;5110114;28;20589;-72
2022/08/13 11:19:45;;;;;;;12.38;3.30;;;28.00;90.30;;;;;;5103553;28;20054;-74
2022/08/13 11:22:19;;;;;;;9.35;3.67;;;28.00;90.00;;;;;;5101586;28;20172;-70
2022/08/13 11:25:00;;;;;;;7.35;3.45;;;28.10;90.30;;;;;;5110285;28;20051;-73
2022/08/13 11:27:47;;;;;;;9.73;4.03;;;28.10;89.30;;;;;;5094976;28;20403;-73
2022/08/13 11:30:18;;;;;;;5.80;3.88;;;28.10;88.70;;;;;;5100467;28;20106;-74
2022/08/13 11:33:00;;;;;;;7.47;3.45;;;28.30;90.20;;;;;;5111158;28;20418;-73
2022/08/13 11:35:33;;;;;;;68.80;61.47;;;28.40;89.00;;;;;;5109935;28;20135;-69
2022/08/13 11:38:11;;;;;;;15.77;14.05;;;28.40;88.40;;;;;;5111678;28;20066;-72
2022/08/13 11:40:46;;;;;;;8.40;6.75;;;28.50;87.70;;;;;;5108557;28;20048;-72
2022/08/13 11:43:19;;;;;;;8.23;4.93;;;28.60;89.00;;;;;;5080467;28;20136;-73
2022/08/13 11:45:47;;;;;;;5.10;3.93;;;28.60;90.10;;;;;;5095453;28;20051;-73
2022/08/13 11:48:15;;;;;;;5.63;3.83;;;28.80;89.60;;;;;;5067603;28;20060;-75
2022/08/13 11:50:48;;;;;;;7.55;3.55;;;29.00;90.00;;;;;;5106264;28;20043;-74
2022/08/13 11:53:16;;;;;;;6.88;3.20;;;29.20;88.20;;;;;;5105958;28;20126;-73
2022/08/13 11:55:50;;;;;;;13.23;9.35;;;29.40;85.00;;;;;;5093730;28;20058;-71
2022/08/13 11:58:26;;;;;;;12.13;8.27;;;29.60;83.90;;;;;;5107671;28;20047;-71
2022/08/13 12:01:16;;;;;;;6.72;3.80;;;29.60;83.50;;;;;;5105654;28;20131;-72
2022/08/13 12:03:54;;;;;;;5.43;3.20;;;29.70;81.90;;;;;;5076806;28;20158;-73
2022/08/13 12:06:41;;;;;;;8.02;2.70;;;29.80;80.10;;;;;;5083997;28;20044;-72
2022/08/13 12:09:17;;;;;;;5.65;3.25;;;30.00;79.30;;;;;;5093264;28;20060;-72
2022/08/13 12:12:04;;;;;;;;;;;30.20;77.50;;;;;;5078736;28;20048;-72
2022/08/13 12:14:38;;;;;;;5.22;2.90;;;30.40;69.80;;;;;;5093325;28;20374;-72
2022/08/13 12:17:05;;;;;;;9.27;3.58;;;30.40;72.30;;;;;;5110309;28;20040;-76
2022/08/13 12:19:32;;;;;;;8.23;2.83;;;30.50;72.40;;;;;;5099538;28;20047;-73
2022/08/13 12:22:01;;;;;;;10.35;8.13;;;30.60;72.10;;;;;;5094452;28;20044;-71
2022/08/13 12:24:28;;;;;;;7.25;3.92;;;30.70;69.60;;;;;;5111584;28;20410;-73
2022/08/13 12:27:00;;;;;;;4.07;2.85;;;30.70;69.50;;;;;;5111409;28;20047;-72
2022/08/13 12:29:31;;;;;;;6.65;2.55;;;30.70;67.80;;;;;;5104780;28;20040;-73
2022/08/13 12:32:13;;;;;;;6.55;3.20;;;30.80;65.10;;;;;;5104223;28;20082;-78
2022/08/13 12:34:41;;;;;;;5.38;2.95;;;31.10;65.40;;;;;;5098671;28;20406;-73
2022/08/13 12:37:08;;;;;;;3.50;2.50;;;31.20;63.70;;;;;;5095262;28;20044;-74
2022/08/13 12:39:53;;;;;;;5.63;3.38;;;31.40;63.60;;;;;;5097848;28;20100;-72
2022/08/13 12:42:22;;;;;;;3.88;2.78;;;31.50;62.10;;;;;;5108949;28;20078;-74
2022/08/13 12:44:54;;;;;;;6.47;3.53;;;31.50;61.80;;;;;;5092044;28;20046;-74
2022/08/13 12:47:40;;;;;;;6.47;2.85;;;31.40;60.70;;;;;;5093586;28;20542;-74
2022/08/13 12:50:17;;;;;;;9.73;3.13;;;31.50;60.10;;;;;;5110475;28;20063;-74
2022/08/13 12:52:48;;;;;;;4.43;2.70;;;31.50;59.20;;;;;;5107556;28;20126;-73
2022/08/13 12:55:16;;;;;;;4.75;2.53;;;31.50;59.80;;;;;;5083267;28;20055;-74
2022/08/13 12:58:11;;;;;;;5.10;3.20;;;31.50;57.40;;;;;;5108757;28;20465;-73
2022/08/13 13:00:42;;;;;;;4.88;2.88;;;31.60;58.50;;;;;;5110147;28;20074;-74
2022/08/13 13:03:09;;;;;;;12.55;11.25;;;31.70;56.60;;;;;;5091310;28;20046;-71
2022/08/13 13:05:44;;;;;;;5.70;3.72;;;31.70;58.40;;;;;;5110384;28;20052;-74
2022/08/13 13:08:30;;;;;;;7.72;3.10;;;31.70;56.20;;;;;;5092786;28;20051;-73
2022/08/13 13:11:04;;;;;;;6.93;2.83;;;31.80;54.80;;;;;;5110327;28;20062;-72
2022/08/13 13:13:40;;;;;;;5.30;2.67;;;31.90;55.20;;;;;;5074449;28;20164;-73
2022/08/13 13:16:21;;;;;;;3.65;2.70;;;32.00;55.80;;;;;;5102111;28;20491;-74
2022/08/13 13:19:05;;;;;;;4.40;2.63;;;31.90;54.80;;;;;;5087388;28;20126;-70
2022/08/13 13:21:42;;;;;;;6.97;2.45;;;32.10;54.90;;;;;;5103448;28;20051;-73
2022/08/13 13:24:10;;;;;;;4.22;2.42;;;32.20;53.80;;;;;;5103480;28;20048;-72
2022/08/13 13:26:51;;;;;;;2.90;2.05;;;32.20;53.70;;;;;;5096270;28;20041;-75
2022/08/13 13:29:32;;;;;;;3.17;2.03;;;32.40;50.40;;;;;;5103608;28;20078;-72
2022/08/13 13:32:07;;;;;;;3.03;2.08;;;32.30;51.10;;;;;;5104385;28;20047;-72
2022/08/13 13:34:55;;;;;;;5.93;2.70;;;32.20;50.90;;;;;;5089181;28;20147;-73
2022/08/13 13:37:26;;;;;;;2.22;2.03;;;32.30;51.80;;;;;;5103323;28;20039;-72
2022/08/13 13:39:55;;;;;;;4.95;2.88;;;32.40;51.70;;;;;;5093341;28;20495;-72
2022/08/13 13:42:22;;;;;;;5.97;3.60;;;32.50;51.60;;;;;;5106307;28;20039;-74